METAR AND TAF INFORMATION
METAR FOR SUCA
ADDS - METARS form results

(2300 UTC 29 September 2020)
Data provider http://aviationweather.gov/metar/data/
 
Forecast for: SUCA (COLONIA SACRAMEN, UY)
Text: TAF SUCA 291730Z 2918/3018 36010KT CAVOK TX23/3018Z TN11/3010Z
Forecast period: 1800 UTC 29 September 2020 to 1800 UTC 30 September 2020
Forecast type: FROM: standard forecast or significant change
Winds: from the N (360 degrees) at 12 MPH (10 knots; 5.1 m/s)
Visibility: 6 or more miles (10+ km)
Ceiling: unknown
Clouds: missing
Weather: no significant weather forecast for this period
Text: TEMPO 2918/2922 02010G20KT
Forecast period: 1800 to 2200 UTC 29 September 2020
Forecast type: TEMPORARY: The following changes expected for less than half the time period
Winds: from the NNE (20 degrees) at 12 MPH (10 knots; 5.1 m/s)
gusting to 23 MPH (20 knots; 10.3 m/s)
Visibility: missing
Ceiling: unknown
Clouds: missing
Weather: no significant weather forecast for this period

 AIRPORT MAP

 RUNWAY INFORMATION
Runway 12 Runway length 4495 ft Runway width 0 ft
Runway elevation 66 ft Runway displaced threshold 0 ft Runway heading 0
Runway 30 Runway length 4495 ft Runway width 0 ft
Runway elevation 33 ft Runway displaced threshold 0 ft Runway heading 0

 AIRPORT FREQUENCIES

 AIRPORT NEAR NAVIGATION AIDS
Type NDB Name Colonia Frequency 203 KHZ